Saturday, June 25, 2016, 10:41 PM EDT
Back to Local

KFIG, Clearfield-lawrence Airport

Location: Clearfield, PA, United States Lat: 41.05
Local Time: 10:41 PM EDT ( 2:41 GMT) Lon: -78.417
Time Zone: US/Eastern Elev: 1515 ft

Show me the last for .
Show Coded

Time T Td Feel RH Dir Speed Gust Alt SLP Vis Weather Sky Remarks
2016-06-25 21:54 72 60 76 66 200° 3 - 30.20 30.18 10 CLR None
2016-06-25 20:54 73 61 77 65 180° 3 - 30.19 30.17 10 CLR None
2016-06-25 19:54 77 61 79 57 180° 3 - 30.19 30.17 10 CLR 6-hr Min Temp (8pm): 77.0°F
6-hr Max Temp (8pm): 84.0°F
2016-06-25 18:54 80 60 81 50 180° 7 - 30.18 30.16 10 CLR None
2016-06-25 17:54 79 58 80 48 Variable 5 - 30.19 30.16 10 FEW060 None
2016-06-25 16:54 82 58 82 43 Variable 5 - 30.19 30.16 10 CLR None
2016-06-25 15:54 81 58 81 45 Variable 5 - 30.19 30.17 10 SCT070 None
2016-06-25 14:54 82 59 83 45 Variable 7 - 30.20 30.18 10 CLR None
2016-06-25 13:54 82 59 83 45 90° 7 - 30.20 30.18 10 CLR 6-hr Min Temp (2pm): 61.0°F
6-hr Max Temp (2pm): 82.9°F
2016-06-25 12:54 80 59 81 48 90° 7 - 30.22 30.19 10 BKN039 BKN050 None
2016-06-25 11:54 75 61 78 61 - Calm - 30.23 30.20 10 FEW030 None
2016-06-25 10:54 75 59 78 57 Variable 6 - 30.23 30.20 10 CLR None
2016-06-25 09:54 70 60 - 70 200° 5 - 30.23 30.21 10 FEW055 None
2016-06-25 08:54 68 60 - 75 - Calm - 30.23 30.20 10 CLR None
2016-06-25 08:24 64 59 - 83 Variable 3 - 30.22 - 10 SCT002 SCT047 None
2016-06-25 08:16 63 58 - 83 30° 5 - 30.22 - 8 BKN002 None
2016-06-25 08:08 62 59 - 89 10° 5 - 30.22 - 2 BR BKN002 None
2016-06-25 07:54 61 58 - 89 20° 5 - 30.21 30.19 0 FG VV002 6-hr Min Temp (8am): 55.9°F
6-hr Max Temp (8am): 61.0°F
2016-06-25 07:52 61 57 - 87 20° 5 - 30.21 - 0 FG VV002 None
2016-06-25 07:13 59 57 - 93 360° 3 - 30.20 - 0 FG VV002 None
2016-06-25 07:06 58 56 - 93 360° 3 - 30.20 - 0 FG VV002 None
2016-06-25 06:54 58 56 - 93 20° 6 - 30.19 30.17 1 BR VV002 None
2016-06-25 06:46 58 56 - 93 30° 5 - 30.19 - 1 BR OVC002 None
2016-06-25 06:34 58 55 - 90 20° 3 - 30.19 - 2 BR OVC002 None
2016-06-25 06:20 56 54 - 93 340° 3 - 30.19 - 3 BR BKN002 OVC050 None
2016-06-25 05:54 56 54 - 93 10° 5 - 30.18 30.16 3 BR BKN048 None
2016-06-25 04:54 57 54 - 89 360° 3 - 30.17 30.15 6 BR CLR None
2016-06-25 04:23 56 54 - 93 360° 3 - 30.16 - 3 BR SCT003 None
2016-06-25 04:14 57 54 - 89 360° 8 - 30.16 - 1 BR SCT003 None
2016-06-25 04:09 56 54 - 93 360° 8 - 30.16 - 0 BR VV003 None
2016-06-25 04:05 57 54 - 89 360° 7 - 30.16 - 1 BR VV002 None
2016-06-25 04:02 57 55 - 93 350° 7 - 30.16 - 2 BR FEW002 None
2016-06-25 03:54 58 55 - 90 20° 7 - 30.15 30.14 9 CLR None
2016-06-25 02:54 58 56 - 93 - Calm - 30.14 30.12 7 CLR None
2016-06-25 01:54 60 57 - 89 350° 8 - 30.15 30.13 10 CLR 6-hr Min Temp (2am): 60.1°F
6-hr Max Temp (2am): 73.9°F
2016-06-24 23:54 63 58 - 83 340° 6 - 30.13 30.11 10 BKN044 OVC070 None
2016-06-24 22:54 64 58 - 80 10° 3 - 30.12 30.11 10 BKN070 None

Support USWX by starting your Amazon purchase here.